createdAt,value
2023-09-17T00:02:36.087Z,24.51
2023-09-17T00:05:21.615Z,24.46
2023-09-17T00:08:07.022Z,24.43
2023-09-17T00:10:52.859Z,24.43
2023-09-17T00:13:38.617Z,24.40
2023-09-17T00:16:24.492Z,24.36
2023-09-17T00:22:22.062Z,24.30
2023-09-17T00:25:08.440Z,24.26
2023-09-17T00:27:53.771Z,24.26
2023-09-17T00:30:39.177Z,24.22
2023-09-17T00:33:25.022Z,24.19
2023-09-17T00:36:14.122Z,24.16
2023-09-17T00:38:59.864Z,24.14
2023-09-17T00:41:46.002Z,24.11
2023-09-17T00:44:31.608Z,24.05
2023-09-17T00:47:17.558Z,24.07
2023-09-17T00:50:05.224Z,24.02
2023-09-17T00:52:52.317Z,23.98
2023-09-17T00:55:38.983Z,23.97
2023-09-17T00:58:25.052Z,23.94
2023-09-17T01:01:11.594Z,23.94
2023-09-17T01:03:57.995Z,23.94
2023-09-17T01:06:44.820Z,23.91
2023-09-17T01:09:32.903Z,23.91
2023-09-17T01:12:19.986Z,23.91
2023-09-17T01:15:08.899Z,23.89
2023-09-17T01:17:54.680Z,23.88
2023-09-17T01:20:52.003Z,23.89
2023-09-17T01:23:44.558Z,23.88
2023-09-17T01:26:31.374Z,23.84
2023-09-17T01:29:21.522Z,23.85
2023-09-17T01:32:07.787Z,23.89
2023-09-17T01:34:53.762Z,23.94
2023-09-17T01:37:45.618Z,23.97
2023-09-17T01:40:31.860Z,23.95
2023-09-17T01:43:18.715Z,23.95
2023-09-17T01:46:06.714Z,24.00
2023-09-17T01:48:53.942Z,24.00
2023-09-17T01:51:40.506Z,24.00
2023-09-17T01:54:26.212Z,23.95
2023-09-17T01:57:12.570Z,23.97
2023-09-17T01:59:58.424Z,23.93
2023-09-17T02:02:49.802Z,23.87
2023-09-17T02:05:36.081Z,23.81
2023-09-17T02:08:21.900Z,23.79
2023-09-17T02:11:07.381Z,23.79
2023-09-17T02:14:20.331Z,23.84
2023-09-17T02:17:24.741Z,23.78
2023-09-17T02:20:13.268Z,23.82
2023-09-17T02:22:59.054Z,23.82
2023-09-17T02:25:45.053Z,23.87
2023-09-17T02:28:30.608Z,23.88
2023-09-17T02:31:16.416Z,23.91
2023-09-17T02:34:02.280Z,23.91
2023-09-17T02:36:49.101Z,23.94
2023-09-17T02:39:35.112Z,23.95
2023-09-17T02:42:20.767Z,23.95
2023-09-17T02:45:07.553Z,23.93
2023-09-17T02:47:53.582Z,23.94
2023-09-17T02:50:39.937Z,23.94
2023-09-17T02:53:26.920Z,23.91
2023-09-17T02:56:12.537Z,23.89
2023-09-17T02:58:58.140Z,23.88
2023-09-17T03:01:43.731Z,23.84
2023-09-17T03:04:29.766Z,23.84
2023-09-17T03:07:15.297Z,23.79
2023-09-17T03:10:02.237Z,23.77
2023-09-17T03:12:50.283Z,23.75
2023-09-17T03:15:36.806Z,23.70
2023-09-17T03:18:22.654Z,23.71
2023-09-17T03:21:08.298Z,23.68
2023-09-17T03:23:54.642Z,23.64
2023-09-17T03:26:41.350Z,23.64
2023-09-17T03:29:27.102Z,23.61
2023-09-17T03:32:12.616Z,23.57
2023-09-17T03:34:58.858Z,23.54
2023-09-17T03:37:44.542Z,23.49
2023-09-17T03:40:30.338Z,23.46
2023-09-17T03:43:17.289Z,23.43
2023-09-17T03:46:03.557Z,23.40
2023-09-17T03:48:49.238Z,23.40
2023-09-17T03:51:35.289Z,23.36
2023-09-17T03:54:21.007Z,23.33
2023-09-17T03:57:06.560Z,23.28
2023-09-17T03:59:53.345Z,23.27
2023-09-17T04:02:40.612Z,23.24
2023-09-17T04:05:27.578Z,23.19
2023-09-17T04:08:13.605Z,23.19
2023-09-17T04:10:59.577Z,23.19
2023-09-17T04:13:45.551Z,23.16
2023-09-17T04:16:32.815Z,23.13
2023-09-17T04:19:18.252Z,23.10
2023-09-17T04:22:04.325Z,23.09
2023-09-17T04:24:50.295Z,23.05
2023-09-17T04:27:36.932Z,23.03
2023-09-17T04:30:23.425Z,22.99
2023-09-17T04:33:10.403Z,22.98
2023-09-17T04:35:58.420Z,22.96
2023-09-17T04:38:44.058Z,22.92
2023-09-17T04:41:29.733Z,22.89
2023-09-17T04:44:15.418Z,22.89
2023-09-17T04:47:03.495Z,22.86
2023-09-17T04:49:51.268Z,22.85
2023-09-17T04:52:37.631Z,22.81
2023-09-17T04:55:23.473Z,22.73
2023-09-17T04:58:09.726Z,22.68
2023-09-17T05:00:55.698Z,22.62
2023-09-17T05:03:42.109Z,22.64
2023-09-17T05:06:29.420Z,22.68
2023-09-17T05:09:15.491Z,22.66
2023-09-17T05:12:01.076Z,22.68
2023-09-17T05:14:47.020Z,22.68
2023-09-17T05:17:32.718Z,22.71
2023-09-17T05:20:18.975Z,22.69
2023-09-17T05:23:05.732Z,22.71
2023-09-17T05:25:51.499Z,22.65
2023-09-17T05:28:38.076Z,22.62
2023-09-17T05:31:23.789Z,22.56
2023-09-17T05:34:09.266Z,22.58
2023-09-17T05:36:55.321Z,22.61
2023-09-17T05:39:42.937Z,22.71
2023-09-17T05:42:28.630Z,22.76
2023-09-17T05:45:14.237Z,22.88
2023-09-17T05:48:00.298Z,22.95
2023-09-17T05:50:46.394Z,23.05
2023-09-17T05:53:32.336Z,23.13
2023-09-17T05:56:19.140Z,23.20
2023-09-17T05:59:05.273Z,23.27
2023-09-17T06:01:51.071Z,23.36
2023-09-17T06:04:36.946Z,23.46
2023-09-17T06:07:23.664Z,23.51
2023-09-17T06:10:10.396Z,23.60
2023-09-17T06:12:57.296Z,23.68
2023-09-17T06:15:43.219Z,23.73
2023-09-17T06:18:29.382Z,23.77
2023-09-17T06:21:15.812Z,23.74
2023-09-17T06:24:02.149Z,23.84
2023-09-17T06:26:47.635Z,23.94
2023-09-17T06:29:35.202Z,24.00
2023-09-17T06:32:21.394Z,24.09
2023-09-17T06:35:08.200Z,24.19
2023-09-17T06:37:54.095Z,24.28
2023-09-17T06:40:40.060Z,24.36
2023-09-17T06:43:32.685Z,24.48
2023-09-17T06:46:21.383Z,24.59
2023-09-17T06:49:07.534Z,24.65
2023-09-17T06:51:56.787Z,24.66
2023-09-17T06:54:47.085Z,24.67
2023-09-17T06:57:33.539Z,24.67
2023-09-17T07:00:19.831Z,24.80
2023-09-17T07:03:07.401Z,24.94
2023-09-17T07:05:53.332Z,25.04
2023-09-17T07:08:39.199Z,25.21
2023-09-17T07:11:24.779Z,25.47
2023-09-17T07:14:10.848Z,25.79
2023-09-17T07:16:58.679Z,26.09
2023-09-17T07:19:51.390Z,26.37
2023-09-17T07:22:39.235Z,26.56
2023-09-17T07:25:25.484Z,26.77
2023-09-17T07:28:11.047Z,27.05
2023-09-17T07:31:01.092Z,27.24
2023-09-17T07:33:46.941Z,27.38
2023-09-17T07:36:34.068Z,27.49
2023-09-17T07:39:20.215Z,27.65
2023-09-17T07:42:06.730Z,27.82
2023-09-17T07:44:57.258Z,28.09
2023-09-17T07:47:44.453Z,28.27
2023-09-17T07:50:30.193Z,28.45
2023-09-17T07:53:21.202Z,28.55
2023-09-17T07:56:12.221Z,28.48
2023-09-17T07:58:58.815Z,28.45
2023-09-17T08:01:50.109Z,28.57
2023-09-17T08:04:37.189Z,28.58
2023-09-17T08:07:28.748Z,28.63
2023-09-17T08:10:16.751Z,28.61
2023-09-17T08:13:03.495Z,28.68
2023-09-17T08:15:49.059Z,28.79
2023-09-17T08:18:34.610Z,28.91
2023-09-17T08:21:20.171Z,28.95
2023-09-17T08:24:11.104Z,29.04
2023-09-17T08:26:59.649Z,29.11
2023-09-17T08:33:00.168Z,29.35
2023-09-17T08:35:46.281Z,29.52
2023-09-17T08:38:32.412Z,29.76
2023-09-17T08:41:19.289Z,29.98
2023-09-17T08:44:08.145Z,30.35
2023-09-17T08:46:57.246Z,30.66
2023-09-17T08:49:42.961Z,30.69
2023-09-17T08:52:33.189Z,30.76
2023-09-17T08:55:20.878Z,30.93
2023-09-17T08:58:19.256Z,31.15
2023-09-17T09:01:14.347Z,31.63
2023-09-17T09:04:02.507Z,32.01
2023-09-17T09:06:57.560Z,32.38
2023-09-17T09:09:45.770Z,32.52
2023-09-17T09:12:31.736Z,32.24
2023-09-17T09:15:17.341Z,31.91
2023-09-17T09:18:05.686Z,31.80
2023-09-17T09:20:51.574Z,31.84
2023-09-17T09:23:38.973Z,31.89
2023-09-17T09:26:34.519Z,32.08
2023-09-17T09:29:22.480Z,32.28
2023-09-17T09:32:08.958Z,32.62
2023-09-17T09:34:57.354Z,33.03
2023-09-17T09:37:44.349Z,33.13
2023-09-17T09:40:30.897Z,33.06
2023-09-17T09:43:29.516Z,32.86
2023-09-17T09:46:16.063Z,32.63
2023-09-17T09:49:02.155Z,32.25
2023-09-17T09:51:49.827Z,31.91
2023-09-17T09:54:35.531Z,31.54
2023-09-17T09:57:21.523Z,31.34
2023-09-17T10:00:10.568Z,31.26
2023-09-17T10:02:56.756Z,31.40
2023-09-17T10:05:42.881Z,31.50
2023-09-17T10:08:30.733Z,31.68
2023-09-17T10:11:17.201Z,31.95
2023-09-17T10:14:03.827Z,32.11
2023-09-17T10:16:50.875Z,32.09
2023-09-17T10:19:39.033Z,32.05
2023-09-17T10:22:25.746Z,31.87
2023-09-17T10:25:15.764Z,31.80
2023-09-17T10:28:03.496Z,31.80
2023-09-17T10:30:51.016Z,31.77
2023-09-17T10:33:38.937Z,31.68
2023-09-17T10:36:26.836Z,31.77
2023-09-17T10:39:15.540Z,32.05
2023-09-17T10:42:03.630Z,32.58
2023-09-17T10:44:54.077Z,33.03
2023-09-17T10:47:41.559Z,33.20
2023-09-17T10:50:27.806Z,33.16
2023-09-17T10:53:13.812Z,33.04
2023-09-17T10:56:07.605Z,32.82
2023-09-17T10:58:54.944Z,32.56
2023-09-17T11:01:42.816Z,32.39
2023-09-17T11:04:30.740Z,32.28
2023-09-17T11:07:18.056Z,31.94
2023-09-17T11:10:14.441Z,31.80
2023-09-17T11:13:07.892Z,31.70
2023-09-17T11:15:57.049Z,31.63
2023-09-17T11:18:45.576Z,31.63
2023-09-17T11:22:12.280Z,31.82
2023-09-17T11:24:59.067Z,31.97
2023-09-17T11:27:48.627Z,32.18
2023-09-17T11:31:00.925Z,32.39
2023-09-17T11:33:46.850Z,32.51
2023-09-17T11:36:33.068Z,32.55
2023-09-17T11:39:19.137Z,32.56
2023-09-17T11:42:14.313Z,32.60
2023-09-17T11:45:00.255Z,32.62
2023-09-17T11:47:47.323Z,32.72
2023-09-17T11:50:33.164Z,32.65
2023-09-17T11:53:18.575Z,32.66
2023-09-17T11:56:04.308Z,33.00
2023-09-17T11:59:01.442Z,33.67
2023-09-17T12:01:49.849Z,34.38
2023-09-17T12:04:37.470Z,34.93
2023-09-17T12:07:23.493Z,35.34
2023-09-17T12:10:11.248Z,35.59
2023-09-17T12:13:01.385Z,35.78
2023-09-17T12:15:47.445Z,35.81
2023-09-17T12:18:33.086Z,35.85
2023-09-17T12:21:21.648Z,35.95
2023-09-17T12:24:08.020Z,36.05
2023-09-17T12:27:22.590Z,36.19
2023-09-17T12:30:13.987Z,36.19
2023-09-17T12:33:00.701Z,36.13
2023-09-17T12:35:46.675Z,36.09
2023-09-17T12:38:34.026Z,36.23
2023-09-17T12:41:28.402Z,36.28
2023-09-17T12:44:25.976Z,36.20
2023-09-17T12:47:12.333Z,36.13
2023-09-17T12:49:58.414Z,36.18
2023-09-17T12:52:44.641Z,36.15
2023-09-17T12:55:31.536Z,36.15
2023-09-17T12:58:19.277Z,36.01
2023-09-17T13:01:10.421Z,35.86
2023-09-17T13:03:58.272Z,35.86
2023-09-17T13:06:48.066Z,35.86
2023-09-17T13:09:34.319Z,35.81
2023-09-17T13:12:23.032Z,35.59
2023-09-17T13:15:10.317Z,35.21
2023-09-17T13:17:55.848Z,34.86
2023-09-17T13:20:41.883Z,34.52
2023-09-17T13:23:27.701Z,34.29
2023-09-17T13:26:13.693Z,34.01
2023-09-17T13:29:00.849Z,33.84
2023-09-17T13:31:48.226Z,33.60
2023-09-17T13:34:35.498Z,33.35
2023-09-17T13:37:21.953Z,33.26
2023-09-17T13:40:09.061Z,33.21
2023-09-17T13:42:54.768Z,33.06
2023-09-17T13:45:52.741Z,32.90
2023-09-17T13:48:38.812Z,32.80
2023-09-17T13:51:24.498Z,32.80
2023-09-17T13:54:10.223Z,32.87
2023-09-17T13:56:58.988Z,32.87
2023-09-17T13:59:44.720Z,32.78
2023-09-17T14:02:32.052Z,32.63
2023-09-17T14:05:18.399Z,32.48
2023-09-17T14:08:06.003Z,32.33
2023-09-17T14:10:52.012Z,32.22
2023-09-17T14:13:37.983Z,32.14
2023-09-17T14:16:23.629Z,31.99
2023-09-17T14:22:20.262Z,31.68
2023-09-17T14:25:07.076Z,31.54
2023-09-17T14:27:52.869Z,31.48
2023-09-17T14:30:38.763Z,31.44
2023-09-17T14:33:25.155Z,31.43
2023-09-17T14:36:12.556Z,31.37
2023-09-17T14:38:58.601Z,31.30
2023-09-17T14:41:44.156Z,31.29
2023-09-17T14:44:29.776Z,31.23
2023-09-17T14:47:15.646Z,31.15
2023-09-17T14:50:01.359Z,31.04
2023-09-17T14:52:49.227Z,31.00
2023-09-17T14:55:34.792Z,30.97
2023-09-17T14:58:20.550Z,30.89
2023-09-17T15:01:06.167Z,30.89
2023-09-17T15:03:52.036Z,30.85
2023-09-17T15:06:37.789Z,30.82
2023-09-17T15:09:26.692Z,30.72
2023-09-17T15:12:12.819Z,30.61
2023-09-17T15:14:58.863Z,30.54
2023-09-17T15:17:44.609Z,30.44
2023-09-17T15:20:32.346Z,30.32
2023-09-17T15:23:18.812Z,30.29
2023-09-17T15:26:06.355Z,30.28
2023-09-17T15:28:51.976Z,30.27
2023-09-17T15:31:39.438Z,30.34
2023-09-17T15:34:25.333Z,30.32
2023-09-17T15:37:11.832Z,30.25
2023-09-17T15:40:00.038Z,30.20
2023-09-17T15:42:47.064Z,30.13
2023-09-17T15:45:32.990Z,30.14
2023-09-17T15:48:18.767Z,30.15
2023-09-17T15:51:06.222Z,30.17
2023-09-17T15:53:52.416Z,30.24
2023-09-17T15:56:38.158Z,30.37
2023-09-17T15:59:25.006Z,30.47
2023-09-17T16:02:10.630Z,30.56
2023-09-17T16:04:56.022Z,30.75
2023-09-17T16:07:45.393Z,30.99
2023-09-17T16:10:31.806Z,31.17
2023-09-17T16:13:17.935Z,31.20
2023-09-17T16:16:04.952Z,31.17
2023-09-17T16:22:00.482Z,31.16
2023-09-17T16:24:46.842Z,31.10
2023-09-17T16:27:35.584Z,31.10
2023-09-17T16:30:21.325Z,31.13
2023-09-17T16:33:08.442Z,31.12
2023-09-17T16:35:53.810Z,31.17
2023-09-17T16:38:39.438Z,31.17
2023-09-17T16:41:25.246Z,31.13
2023-09-17T16:44:10.938Z,31.12
2023-09-17T16:46:56.541Z,31.03
2023-09-17T16:49:43.886Z,30.96
2023-09-17T16:52:30.155Z,30.83
2023-09-17T16:55:16.691Z,30.76
2023-09-17T16:58:02.237Z,30.71
2023-09-17T17:00:48.194Z,30.66
2023-09-17T17:03:34.266Z,30.61
2023-09-17T17:06:21.697Z,30.52
2023-09-17T17:09:07.304Z,30.38
2023-09-17T17:11:53.169Z,30.24
2023-09-17T17:14:39.089Z,30.10
2023-09-17T17:17:25.166Z,29.97
2023-09-17T17:20:11.531Z,29.87
2023-09-17T17:22:59.271Z,29.77
2023-09-17T17:25:45.033Z,29.73
2023-09-17T17:28:30.900Z,29.69
2023-09-17T17:31:16.884Z,29.59
2023-09-17T17:34:02.788Z,29.47
2023-09-17T17:36:48.635Z,29.40
2023-09-17T17:39:35.744Z,29.33
2023-09-17T17:42:21.363Z,29.25
2023-09-17T17:45:09.707Z,29.18
2023-09-17T17:47:55.468Z,29.05
2023-09-17T17:50:41.118Z,28.96
2023-09-17T17:53:30.459Z,28.90
2023-09-17T17:56:17.755Z,28.82
2023-09-17T17:59:03.854Z,28.76
2023-09-17T18:01:49.756Z,28.76
2023-09-17T18:04:35.389Z,28.64
2023-09-17T18:07:24.481Z,28.55
2023-09-17T18:10:11.343Z,28.50
2023-09-17T18:12:58.337Z,28.50
2023-09-17T18:15:43.857Z,28.44
2023-09-17T18:18:29.829Z,28.44
2023-09-17T18:21:15.505Z,28.39
2023-09-17T18:24:01.340Z,28.36
2023-09-17T18:26:47.082Z,28.25
2023-09-17T18:29:33.922Z,28.23
2023-09-17T18:32:44.648Z,28.17
2023-09-17T18:35:31.246Z,28.12
2023-09-17T18:38:18.259Z,28.09
2023-09-17T18:41:04.297Z,28.09
2023-09-17T18:43:50.363Z,28.09
2023-09-17T18:46:38.133Z,28.07
2023-09-17T18:49:24.050Z,28.06
2023-09-17T18:52:09.714Z,28.04
2023-09-17T18:54:55.601Z,28.03
2023-09-17T18:57:41.468Z,27.99
2023-09-17T19:00:27.313Z,27.97
2023-09-17T19:03:14.387Z,27.99
2023-09-17T19:06:00.582Z,27.97
2023-09-17T19:08:46.776Z,27.96
2023-09-17T19:11:33.312Z,27.94
2023-09-17T19:14:19.950Z,27.92
2023-09-17T19:17:05.428Z,27.90
2023-09-17T19:19:54.221Z,27.88
2023-09-17T19:22:40.552Z,27.85
2023-09-17T19:25:26.646Z,27.81
2023-09-17T19:28:12.329Z,27.74
2023-09-17T19:30:57.955Z,27.72
2023-09-17T19:33:44.131Z,27.70
2023-09-17T19:36:32.293Z,27.65
2023-09-17T19:39:18.686Z,27.62
2023-09-17T19:42:05.095Z,27.55
2023-09-17T19:44:50.681Z,27.49
2023-09-17T19:47:36.732Z,27.39
2023-09-17T19:50:22.195Z,27.37
2023-09-17T19:53:09.492Z,27.35
2023-09-17T19:55:55.584Z,27.32
2023-09-17T19:58:41.422Z,27.31
2023-09-17T20:01:28.083Z,27.27
2023-09-17T20:04:15.303Z,27.27
2023-09-17T20:07:01.298Z,27.31
2023-09-17T20:09:48.358Z,27.31
2023-09-17T20:12:33.746Z,27.25
2023-09-17T20:15:19.483Z,27.22
2023-09-17T20:18:06.063Z,27.16
2023-09-17T20:20:51.494Z,27.15
2023-09-17T20:23:38.119Z,27.12
2023-09-17T20:26:25.040Z,27.14
2023-09-17T20:29:10.627Z,27.08
2023-09-17T20:31:56.735Z,27.08
2023-09-17T20:34:42.862Z,27.05
2023-09-17T20:37:28.217Z,27.02
2023-09-17T20:40:14.204Z,27.02
2023-09-17T20:43:01.166Z,27.01
2023-09-17T20:45:48.576Z,26.97
2023-09-17T20:48:34.636Z,26.95
2023-09-17T20:51:20.322Z,26.91
2023-09-17T20:54:06.300Z,26.88
2023-09-17T20:56:52.039Z,26.87
2023-09-17T20:59:38.754Z,26.83
2023-09-17T21:02:25.287Z,26.80
2023-09-17T21:05:11.105Z,26.83
2023-09-17T21:07:56.594Z,26.79
2023-09-17T21:10:42.939Z,26.74
2023-09-17T21:13:28.440Z,26.77
2023-09-17T21:16:17.162Z,26.73
2023-09-17T21:19:03.166Z,26.69
2023-09-17T21:22:15.358Z,26.61
2023-09-17T21:25:01.120Z,26.61
2023-09-17T21:27:46.759Z,26.59
2023-09-17T21:30:33.128Z,26.60
2023-09-17T21:33:20.351Z,26.65
2023-09-17T21:36:06.499Z,26.61
2023-09-17T21:38:53.076Z,26.61
2023-09-17T21:41:38.645Z,26.65
2023-09-17T21:44:24.740Z,26.64
2023-09-17T21:47:10.611Z,26.64
2023-09-17T21:49:57.651Z,26.60
2023-09-17T21:52:43.477Z,26.57
2023-09-17T21:55:29.140Z,26.53
2023-09-17T21:58:14.722Z,26.51
2023-09-17T22:01:00.513Z,26.51
2023-09-17T22:03:49.383Z,26.44
2023-09-17T22:06:36.708Z,26.36
2023-09-17T22:09:22.056Z,26.26
2023-09-17T22:12:08.677Z,26.22
2023-09-17T22:14:55.306Z,26.23
2023-09-17T22:17:41.073Z,26.19
2023-09-17T22:20:26.937Z,26.23
2023-09-17T22:23:14.150Z,26.25
2023-09-17T22:26:01.376Z,26.25
2023-09-17T22:28:49.644Z,26.32
2023-09-17T22:31:34.978Z,26.29
2023-09-17T22:34:24.075Z,26.26
2023-09-17T22:37:09.957Z,26.22
2023-09-17T22:39:56.860Z,26.22
2023-09-17T22:42:42.462Z,26.18
2023-09-17T22:45:28.216Z,26.13
2023-09-17T22:48:14.111Z,26.15
2023-09-17T22:51:00.436Z,26.18
2023-09-17T22:53:47.768Z,26.22
2023-09-17T22:56:35.002Z,26.22
2023-09-17T22:59:22.590Z,26.32
2023-09-17T23:02:08.153Z,26.41
2023-09-17T23:04:54.737Z,26.47
2023-09-17T23:07:41.000Z,26.49
2023-09-17T23:10:26.604Z,26.53
2023-09-17T23:13:13.641Z,26.53
2023-09-17T23:16:01.936Z,26.54
2023-09-17T23:21:57.830Z,26.53
2023-09-17T23:24:43.456Z,26.54
2023-09-17T23:27:29.143Z,26.57
2023-09-17T23:30:16.474Z,26.61
2023-09-17T23:33:02.973Z,26.60
2023-09-17T23:35:48.532Z,26.59
2023-09-17T23:38:34.770Z,26.59
2023-09-17T23:41:21.914Z,26.61
2023-09-17T23:44:08.008Z,26.63
2023-09-17T23:46:55.020Z,26.63
2023-09-17T23:49:40.855Z,26.59
2023-09-17T23:52:26.661Z,26.57
2023-09-17T23:55:12.236Z,26.53
2023-09-17T23:57:57.952Z,26.53
